Time;durP1;ratioP1;P1;durP2;ratioP2;P2;SDS_P1;SDS_P2;PMS_P1;PMS_P2;Temp;Humidity;BMP_temperature;BMP_pressure;BME280_temperature;BME280_humidity;BME280_pressure;Samples;Min_cycle;Max_cycle;Signal;HPM_P1;HPM_P2
2021/04/10 00:02:05;;;;;;;12.17;5.93;;;10.20;89.70;;;;;;5029657;28;20545;-74
2021/04/10 00:04:32;;;;;;;13.83;6.53;;;10.20;90.50;;;;;;5029533;28;20488;-74
2021/04/10 00:06:58;;;;;;;15.00;6.77;;;10.10;92.40;;;;;;5028847;28;20814;-73
2021/04/10 00:09:24;;;;;;;14.13;6.17;;;10.00;91.90;;;;;;5029354;28;20515;-73
2021/04/10 00:11:50;;;;;;;11.70;5.47;;;10.00;91.60;;;;;;5029482;28;20476;-74
2021/04/10 00:14:17;;;;;;;11.43;5.83;;;9.90;91.40;;;;;;5029312;28;20991;-74
2021/04/10 00:16:44;;;;;;;9.90;4.97;;;10.10;89.70;;;;;;5028711;28;20453;-73
2021/04/10 00:19:11;;;;;;;12.77;6.40;;;10.20;88.90;;;;;;5029499;28;20972;-75
2021/04/10 00:21:37;;;;;;;12.60;6.73;;;10.40;88.10;;;;;;5029083;28;21003;-73
2021/04/10 00:24:04;;;;;;;12.10;7.00;;;10.50;87.70;;;;;;5029242;28;20480;-74
2021/04/10 00:26:30;;;;;;;13.87;7.10;;;10.50;87.90;;;;;;5028814;28;20448;-74
2021/04/10 00:28:56;;;;;;;10.87;6.87;;;10.40;88.70;;;;;;5028829;28;20881;-73
2021/04/10 00:31:23;;;;;;;15.30;7.20;;;10.40;88.00;;;;;;5029034;28;21193;-74
2021/04/10 00:33:50;;;;;;;11.50;6.30;;;10.30;88.20;;;;;;5029091;28;20440;-74
2021/04/10 00:36:16;;;;;;;12.90;7.17;;;10.40;88.00;;;;;;5028491;28;20445;-74
2021/04/10 00:38:42;;;;;;;12.20;6.50;;;10.30;88.90;;;;;;5028751;28;20455;-73
2021/04/10 00:41:09;;;;;;;9.70;5.93;;;10.20;88.60;;;;;;5029342;28;20465;-74
2021/04/10 00:43:36;;;;;;;12.03;6.03;;;10.10;88.80;;;;;;5028772;28;20962;-74
2021/04/10 00:46:02;;;;;;;18.30;6.50;;;10.10;89.10;;;;;;5028571;28;20452;-74
2021/04/10 00:48:29;;;;;;;9.83;5.17;;;10.20;89.50;;;;;;5028748;28;20468;-74
2021/04/10 00:50:56;;;;;;;9.00;4.37;;;10.30;88.50;;;;;;5027261;28;20480;-73
2021/04/10 00:53:24;;;;;;;9.33;4.90;;;10.40;87.20;;;;;;5028625;28;20452;-74
2021/04/10 00:55:53;;;;;;;7.40;4.53;;;10.50;87.20;;;;;;5028584;28;20460;-74
2021/04/10 00:58:19;;;;;;;7.00;4.30;;;10.30;88.20;;;;;;5029091;28;20452;-74
2021/04/10 01:00:46;;;;;;;8.80;4.07;;;10.40;87.60;;;;;;5028760;28;20885;-73
2021/04/10 01:03:12;;;;;;;7.60;3.90;;;10.40;87.60;;;;;;5028822;28;20449;-73
2021/04/10 01:05:39;;;;;;;10.70;4.00;;;10.40;87.10;;;;;;5028079;28;20480;-74
2021/04/10 01:08:06;;;;;;;8.07;3.90;;;10.60;86.50;;;;;;5028480;28;20448;-74
2021/04/10 01:10:32;;;;;;;11.93;3.83;;;10.60;87.10;;;;;;5028470;28;20444;-74
2021/04/10 01:13:07;;;;;;;7.13;3.80;;;10.50;87.90;;;;;;5028640;28;20449;-73
2021/04/10 01:15:42;;;;;;;6.37;4.10;;;10.50;87.90;;;;;;5027956;28;20447;-73
2021/04/10 01:18:14;;;;;;;6.43;3.50;;;10.60;87.20;;;;;;5028762;28;20807;-73
2021/04/10 01:21:07;;;;;;;7.03;3.87;;;10.60;86.60;;;;;;5028664;28;20907;-73
2021/04/10 01:24:16;;;;;;;5.97;3.40;;;10.70;87.40;;;;;;5028605;28;20499;-73
2021/04/10 01:27:04;;;;;;;7.70;3.47;;;10.70;87.10;;;;;;5027943;28;21019;-72
2021/04/10 01:29:33;;;;;;;4.97;3.30;;;10.60;86.60;;;;;;5028507;28;20448;-75
2021/04/10 01:32:00;;;;;;;5.60;3.50;;;10.60;87.50;;;;;;5029688;28;21079;-74
2021/04/10 01:34:30;;;;;;;7.30;3.50;;;10.60;86.70;;;;;;5032449;28;20452;-74
2021/04/10 01:37:03;;;;;;;6.07;3.30;;;10.50;87.80;;;;;;5031982;28;20445;-74
2021/04/10 01:39:32;;;;;;;5.30;3.73;;;10.40;88.00;;;;;;5032221;28;20428;-74
2021/04/10 01:41:59;;;;;;;10.73;4.07;;;10.40;88.10;;;;;;5032517;28;20471;-74
2021/04/10 01:44:26;;;;;;;7.40;3.73;;;10.40;88.20;;;;;;5032264;28;20578;-73
2021/04/10 01:46:54;;;;;;;7.77;4.30;;;10.70;86.90;;;;;;5031615;28;20444;-75
2021/04/10 01:49:20;;;;;;;11.27;3.83;;;10.50;88.80;;;;;;5031667;28;20767;-74
2021/04/10 01:51:48;;;;;;;6.60;3.70;;;10.40;89.20;;;;;;5031949;28;20488;-74
2021/04/10 01:54:15;;;;;;;8.10;3.80;;;10.40;88.90;;;;;;5032317;28;20440;-72
2021/04/10 01:56:45;;;;;;;5.80;3.60;;;10.40;89.20;;;;;;5031609;28;20444;-72
2021/04/10 01:59:13;;;;;;;9.87;3.60;;;10.30;89.30;;;;;;5032156;28;20448;-74
2021/04/10 02:01:41;;;;;;;6.30;3.83;;;10.30;89.70;;;;;;5031824;28;20468;-74
2021/04/10 02:04:11;;;;;;;5.93;3.50;;;10.40;89.70;;;;;;5031937;28;20484;-74
2021/04/10 02:06:39;;;;;;;6.87;3.20;;;10.50;88.80;;;;;;5031144;28;20467;-74
2021/04/10 02:09:06;;;;;;;5.80;3.20;;;10.40;89.00;;;;;;5031796;28;20448;-73
2021/04/10 02:11:33;;;;;;;4.70;2.70;;;10.40;89.10;;;;;;5031661;28;20731;-74
2021/04/10 02:14:00;;;;;;;5.30;2.77;;;10.40;89.10;;;;;;5031755;28;20884;-75
2021/04/10 02:16:27;;;;;;;5.90;2.87;;;10.40;88.70;;;;;;5031042;28;20506;-74
2021/04/10 02:18:54;;;;;;;5.10;3.00;;;10.40;89.50;;;;;;5031371;28;20479;-73
2021/04/10 02:21:25;;;;;;;4.40;2.70;;;10.40;88.90;;;;;;5031624;28;20468;-74
2021/04/10 02:23:52;;;;;;;4.13;2.70;;;10.50;89.00;;;;;;5031686;28;21019;-74
2021/04/10 02:26:18;;;;;;;4.73;2.80;;;10.50;88.30;;;;;;5031048;28;21078;-75
2021/04/10 02:28:44;;;;;;;4.10;2.87;;;10.50;88.50;;;;;;5031070;28;20459;-74
2021/04/10 02:31:15;;;;;;;5.37;3.07;;;10.40;89.70;;;;;;5031409;28;20468;-74
2021/04/10 02:33:44;;;;;;;5.23;3.20;;;10.40;88.40;;;;;;5031397;28;20453;-74
2021/04/10 02:36:15;;;;;;;6.30;3.70;;;10.40;89.10;;;;;;5030667;28;20448;-75
2021/04/10 02:38:45;;;;;;;8.83;3.60;;;10.40;88.60;;;;;;5030811;28;20456;-75
2021/04/10 02:41:14;;;;;;;7.40;3.50;;;10.40;88.60;;;;;;5031158;28;20471;-74
2021/04/10 02:43:44;;;;;;;5.20;3.33;;;10.40;88.20;;;;;;5029824;28;20981;-73
2021/04/10 02:46:13;;;;;;;6.23;3.27;;;10.50;88.10;;;;;;5030576;28;20525;-73
2021/04/10 02:48:50;;;;;;;5.93;3.10;;;10.60;87.70;;;;;;5030982;28;20440;-74
2021/04/10 02:51:16;;;;;;;5.80;3.20;;;10.50;87.60;;;;;;5029607;28;20480;-74
2021/04/10 02:53:45;;;;;;;5.80;3.63;;;10.60;87.50;;;;;;5031087;28;20448;-74
2021/04/10 02:56:14;;;;;;;5.40;3.43;;;10.50;87.90;;;;;;5030474;28;20495;-74
2021/04/10 02:58:42;;;;;;;6.17;3.50;;;10.50;88.00;;;;;;5030625;28;20444;-74
2021/04/10 03:01:10;;;;;;;5.47;3.20;;;10.60;87.50;;;;;;5030879;28;20464;-74
2021/04/10 03:03:37;;;;;;;5.97;3.10;;;10.60;87.40;;;;;;5030819;28;20456;-74
2021/04/10 03:06:04;;;;;;;5.90;3.13;;;10.40;88.70;;;;;;5030164;28;20496;-74
2021/04/10 03:08:30;;;;;;;5.93;2.97;;;10.50;88.20;;;;;;5030653;28;20440;-74
2021/04/10 03:10:58;;;;;;;5.63;3.10;;;10.40;88.50;;;;;;5030512;28;20464;-74
2021/04/10 03:13:24;;;;;;;5.53;2.90;;;10.50;88.20;;;;;;5030627;28;20444;-74
2021/04/10 03:15:52;;;;;;;5.53;3.10;;;10.40;88.50;;;;;;5030214;28;20440;-73
2021/04/10 03:18:20;;;;;;;5.33;2.87;;;10.40;88.60;;;;;;5030293;28;20445;-74
2021/04/10 03:20:46;;;;;;;6.07;3.10;;;10.40;88.40;;;;;;5030319;28;20475;-75
2021/04/10 03:23:13;;;;;;;4.57;2.90;;;10.30;89.00;;;;;;5030621;28;20464;-74
2021/04/10 03:25:39;;;;;;;5.83;3.20;;;10.30;89.50;;;;;;5029775;28;20534;-74
2021/04/10 03:28:08;;;;;;;4.47;2.63;;;10.30;90.00;;;;;;5030318;28;20821;-74
2021/04/10 03:30:35;;;;;;;4.83;2.70;;;10.30;90.10;;;;;;5030186;28;20448;-73
2021/04/10 03:33:02;;;;;;;5.73;2.93;;;10.30;90.90;;;;;;5030339;28;20440;-73
2021/04/10 03:35:30;;;;;;;8.60;2.70;;;10.30;90.80;;;;;;5029578;28;20441;-74
2021/04/10 03:37:57;;;;;;;4.10;2.73;;;10.30;91.90;;;;;;5029750;28;20479;-73
2021/04/10 03:40:24;;;;;;;5.40;2.70;;;10.30;91.70;;;;;;5030036;28;20448;-73
2021/04/10 03:42:51;;;;;;;6.40;2.73;;;10.40;91.40;;;;;;5030034;28;20927;-74
2021/04/10 03:45:19;;;;;;;4.30;2.87;;;10.50;91.50;;;;;;5029502;28;20488;-73
2021/04/10 03:47:46;;;;;;;8.67;2.60;;;10.50;91.70;;;;;;5029303;28;20880;-74
2021/04/10 03:50:13;;;;;;;7.20;3.03;;;10.50;92.00;;;;;;5029082;28;20444;-73
2021/04/10 03:52:39;;;;;;;5.60;3.13;;;10.50;92.10;;;;;;5029574;28;20495;-73
2021/04/10 03:55:07;;;;;;;5.10;2.60;;;10.60;91.70;;;;;;5029198;28;20441;-73
2021/04/10 03:57:34;;;;;;;4.10;2.63;;;10.60;92.30;;;;;;5029236;28;20999;-72
2021/04/10 04:00:00;;;;;;;5.30;2.50;;;10.60;92.70;;;;;;5029794;28;20929;-73
2021/04/10 04:02:27;;;;;;;5.20;2.57;;;10.60;92.90;;;;;;5029624;28;20475;-73
2021/04/10 04:04:54;;;;;;;4.27;2.40;;;10.50;93.30;;;;;;5029058;28;20515;-71
2021/04/10 04:07:21;;;;;;;5.77;2.70;;;10.50;93.60;;;;;;5029388;28;20445;-73
2021/04/10 04:09:47;;;;;;;4.60;2.47;;;10.50;93.70;;;;;;5029514;28;20452;-72
2021/04/10 04:12:13;;;;;;;8.70;2.63;;;10.50;93.80;;;;;;5029498;28;20465;-73
2021/04/10 04:14:40;;;;;;;5.93;2.60;;;10.50;93.60;;;;;;5029538;28;20968;-73
2021/04/10 04:17:06;;;;;;;6.17;2.43;;;10.50;93.70;;;;;;5028514;28;20449;-73
2021/04/10 04:19:34;;;;;;;4.97;2.43;;;10.50;93.50;;;;;;5029321;28;20867;-72
2021/04/10 04:22:01;;;;;;;5.10;2.57;;;10.60;92.70;;;;;;5029383;28;20464;-74
2021/04/10 04:24:27;;;;;;;5.50;2.80;;;10.50;93.00;;;;;;5029010;28;20476;-73
2021/04/10 04:26:53;;;;;;;6.07;2.57;;;10.60;93.20;;;;;;5028272;28;20449;-73
2021/04/10 04:29:19;;;;;;;4.57;2.87;;;10.60;92.10;;;;;;5029045;28;20452;-72
2021/04/10 04:31:45;;;;;;;5.30;2.67;;;10.60;91.80;;;;;;5028893;28;20475;-73
2021/04/10 04:34:12;;;;;;;3.50;2.30;;;10.70;92.40;;;;;;5029395;28;20441;-73
2021/04/10 04:36:39;;;;;;;3.80;2.60;;;10.70;92.00;;;;;;5029026;28;20471;-74
2021/04/10 04:39:06;;;;;;;4.10;2.40;;;10.70;92.80;;;;;;5028809;28;20444;-73
2021/04/10 04:41:32;;;;;;;3.90;2.47;;;10.60;93.50;;;;;;5028842;28;20461;-72
2021/04/10 04:43:59;;;;;;;3.83;2.60;;;10.50;94.00;;;;;;5028890;28;20449;-73
2021/04/10 04:46:25;;;;;;;5.83;2.37;;;10.50;94.60;;;;;;5028348;28;20440;-73
2021/04/10 04:48:51;;;;;;;7.43;2.80;;;10.50;94.90;;;;;;5028730;28;20827;-73
2021/04/10 04:51:18;;;;;;;6.90;2.47;;;10.40;95.20;;;;;;5089076;22;20484;-68
2021/04/10 04:53:45;;;;;;;4.10;2.50;;;10.40;95.20;;;;;;5048809;28;20936;-69
2021/04/10 04:56:11;;;;;;;5.37;2.33;;;10.40;95.70;;;;;;5048208;28;20448;-68
2021/04/10 04:58:37;;;;;;;3.77;2.20;;;10.30;95.50;;;;;;5048515;28;20863;-68
2021/04/10 05:01:04;;;;;;;6.13;2.70;;;10.40;95.30;;;;;;5050934;28;20490;-68
2021/04/10 05:03:30;;;;;;;3.80;2.30;;;10.40;95.00;;;;;;5068667;28;20450;-69
2021/04/10 05:05:56;;;;;;;4.47;2.20;;;10.40;94.90;;;;;;5067764;28;20470;-69
2021/04/10 05:08:22;;;;;;;5.10;2.50;;;10.40;95.00;;;;;;5068042;28;20465;-68
2021/04/10 05:10:49;;;;;;;5.80;2.80;;;10.40;95.40;;;;;;5068777;28;20447;-67
2021/04/10 05:13:15;;;;;;;5.00;2.60;;;10.40;96.10;;;;;;5068568;28;20447;-68
2021/04/10 05:15:42;;;;;;;2.77;2.20;;;10.30;97.10;;;;;;5068071;28;20500;-69
2021/04/10 05:18:08;;;;;;;4.80;2.10;;;10.30;97.20;;;;;;5068089;28;20447;-68
2021/04/10 05:20:34;;;;;;;6.80;3.10;;;10.30;97.20;;;;;;5068484;28;20442;-68
2021/04/10 05:23:00;;;;;;;6.13;2.70;;;10.30;99.70;;;;;;5068454;28;20520;-69
2021/04/10 05:25:27;;;;;;;3.97;2.30;;;10.20;99.70;;;;;;5067970;28;20485;-68
2021/04/10 05:27:54;;;;;;;4.87;2.40;;;10.10;99.70;;;;;;5068275;28;20902;-68
2021/04/10 05:30:21;;;;;;;6.17;2.87;;;10.00;99.70;;;;;;5068745;28;20893;-69
2021/04/10 05:32:48;;;;;;;5.23;2.80;;;9.80;99.70;;;;;;5068478;28;20470;-68
2021/04/10 05:35:15;;;;;;;3.93;2.53;;;9.70;99.70;;;;;;5068032;28;20435;-67
2021/04/10 05:37:42;;;;;;;4.13;2.70;;;9.70;99.70;;;;;;5068050;28;20474;-69
2021/04/10 05:40:09;;;;;;;4.73;2.80;;;9.70;99.70;;;;;;5068588;28;20513;-67
2021/04/10 05:42:35;;;;;;;5.07;2.60;;;9.70;99.70;;;;;;5068219;28;20454;-69
2021/04/10 05:45:02;;;;;;;3.93;2.70;;;9.70;99.70;;;;;;5067622;28;20475;-68
2021/04/10 05:47:28;;;;;;;6.30;2.60;;;9.70;99.70;;;;;;5067910;28;20447;-70
2021/04/10 05:49:55;;;;;;;6.33;2.70;;;9.80;99.70;;;;;;5066886;28;20458;-68
2021/04/10 05:52:21;;;;;;;5.57;2.70;;;9.70;99.70;;;;;;5068466;28;20481;-67
2021/04/10 05:54:47;;;;;;;7.23;2.70;;;9.70;99.70;;;;;;5068356;28;20446;-68
2021/04/10 05:57:13;;;;;;;4.87;2.60;;;9.70;99.70;;;;;;5067659;28;20534;-69
2021/04/10 05:59:39;;;;;;;3.70;2.50;;;9.70;99.70;;;;;;5068457;28;20443;-67
2021/04/10 06:02:07;;;;;;;4.60;2.70;;;9.70;99.70;;;;;;5068225;28;21054;-68
2021/04/10 06:04:33;;;;;;;6.20;2.67;;;9.60;99.70;;;;;;5068063;28;20492;-70
2021/04/10 06:07:00;;;;;;;6.17;2.60;;;9.50;99.70;;;;;;5067382;28;20442;-69
2021/04/10 06:09:26;;;;;;;5.27;2.60;;;9.60;99.70;;;;;;5068174;28;20446;-68
2021/04/10 06:11:52;;;;;;;7.30;2.50;;;9.50;99.70;;;;;;5068068;28;20466;-69
2021/04/10 06:14:19;;;;;;;7.97;2.80;;;9.50;99.70;;;;;;5068141;28;20435;-68
2021/04/10 06:16:46;;;;;;;4.20;2.60;;;9.60;99.70;;;;;;5067235;28;20455;-69
2021/04/10 06:19:13;;;;;;;4.70;2.60;;;9.50;99.70;;;;;;5070843;28;20511;-67
2021/04/10 06:21:39;;;;;;;3.90;2.90;;;9.60;99.70;;;;;;5071555;28;20489;-67
2021/04/10 06:24:06;;;;;;;4.63;2.70;;;9.60;99.70;;;;;;5071298;28;20825;-68
2021/04/10 06:26:32;;;;;;;6.93;2.67;;;9.70;99.70;;;;;;5070921;28;20825;-67
2021/04/10 06:28:58;;;;;;;4.87;2.63;;;9.60;99.70;;;;;;5071037;28;20442;-68
2021/04/10 06:31:24;;;;;;;4.80;2.57;;;9.50;99.70;;;;;;5071364;28;20462;-69
2021/04/10 06:33:50;;;;;;;4.73;2.70;;;9.60;99.70;;;;;;5067980;28;20462;-70
2021/04/10 06:36:18;;;;;;;5.40;2.90;;;9.60;99.70;;;;;;5070885;28;20435;-68
2021/04/10 06:38:44;;;;;;;5.13;2.80;;;9.70;99.70;;;;;;5070875;28;20500;-69
2021/04/10 06:41:13;;;;;;;5.40;2.57;;;9.60;99.70;;;;;;5071124;28;20466;-69
2021/04/10 06:43:41;;;;;;;4.83;2.70;;;9.70;99.70;;;;;;5071020;28;20458;-68
2021/04/10 06:46:09;;;;;;;5.57;2.70;;;9.70;99.70;;;;;;5070502;28;20565;-68
2021/04/10 06:48:38;;;;;;;5.60;2.70;;;9.60;99.70;;;;;;5070758;28;20481;-69
2021/04/10 06:51:04;;;;;;;6.27;2.80;;;9.70;99.70;;;;;;5069444;28;20515;-68
2021/04/10 06:53:33;;;;;;;7.10;2.67;;;9.70;99.70;;;;;;5070847;28;20438;-68
2021/04/10 06:56:02;;;;;;;10.50;2.70;;;9.70;99.70;;;;;;5070521;28;20469;-68
2021/04/10 06:58:32;;;;;;;4.77;2.60;;;9.70;99.70;;;;;;5070493;28;20457;-68
2021/04/10 07:00:59;;;;;;;5.33;2.70;;;9.70;99.70;;;;;;5070773;28;20447;-68
2021/04/10 07:03:26;;;;;;;5.07;2.87;;;9.80;99.70;;;;;;5070635;28;20450;-68
2021/04/10 07:05:54;;;;;;;4.37;2.40;;;9.80;99.70;;;;;;5070374;28;20474;-69
2021/04/10 07:08:21;;;;;;;6.43;2.77;;;9.80;99.70;;;;;;5070994;28;20469;-68
2021/04/10 07:10:50;;;;;;;3.67;2.60;;;9.80;99.70;;;;;;5070785;28;20450;-67
2021/04/10 07:13:16;;;;;;;4.00;2.50;;;9.80;99.70;;;;;;5070635;28;20862;-68
2021/04/10 07:15:42;;;;;;;4.97;2.70;;;9.80;99.70;;;;;;5070283;28;20830;-69
2021/04/10 07:18:09;;;;;;;4.90;2.67;;;9.90;99.70;;;;;;5070272;28;20438;-69
2021/04/10 07:20:37;;;;;;;4.60;2.70;;;9.80;99.70;;;;;;5070262;28;20458;-68
2021/04/10 07:23:05;;;;;;;6.50;2.70;;;9.70;99.70;;;;;;5070616;28;20473;-68
2021/04/10 07:25:33;;;;;;;4.77;2.80;;;9.70;99.70;;;;;;5059042;28;20479;-66
2021/04/10 07:28:21;;;;;;;4.83;2.83;;;9.60;99.70;;;;;;5052758;28;20448;-67
2021/04/10 07:30:58;;;;;;;6.43;3.40;;;9.60;99.70;;;;;;5049410;28;20881;-63
2021/04/10 07:33:25;;;;;;;5.27;3.17;;;9.60;99.70;;;;;;5068927;28;21285;-66
2021/04/10 07:35:51;;;;;;;6.93;2.90;;;9.70;99.70;;;;;;5072306;28;20458;-65
2021/04/10 07:38:25;;;;;;;6.00;3.20;;;9.70;99.70;;;;;;5068529;28;20439;-68
2021/04/10 07:40:52;;;;;;;4.43;2.63;;;9.70;99.70;;;;;;5069791;28;20442;-68
2021/04/10 07:43:24;;;;;;;5.90;2.80;;;9.70;99.70;;;;;;5069141;28;20982;-69
2021/04/10 07:45:51;;;;;;;7.77;3.10;;;9.80;99.70;;;;;;5067973;28;21009;-68
2021/04/10 07:48:19;;;;;;;7.73;2.60;;;9.80;99.70;;;;;;5067736;28;20435;-67
2021/04/10 07:50:46;;;;;;;3.43;2.50;;;9.80;99.70;;;;;;5056112;28;20841;-68
2021/04/10 07:53:20;;;;;;;4.00;2.60;;;9.90;99.70;;;;;;5056127;28;20569;-68
2021/04/10 07:55:47;;;;;;;7.13;2.87;;;9.90;99.70;;;;;;5059778;28;20439;-64
2021/04/10 07:58:29;;;;;;;5.57;3.40;;;10.00;99.70;;;;;;5058066;28;20562;-65
2021/04/10 08:00:57;;;;;;;3.40;2.30;;;9.90;99.70;;;;;;5070546;28;20455;-68
2021/04/10 08:03:30;;;;;;;4.30;2.67;;;10.00;99.70;;;;;;5071132;28;20459;-66
2021/04/10 08:06:11;;;;;;;8.63;2.83;;;10.00;99.70;;;;;;5070656;28;20470;-66
2021/04/10 08:08:53;;;;;;;4.63;2.40;;;10.00;99.70;;;;;;5069277;28;20455;-67
2021/04/10 08:11:33;;;;;;;5.33;2.73;;;10.10;99.70;;;;;;5068713;28;20921;-68
2021/04/10 08:14:02;;;;;;;6.13;2.73;;;10.10;99.70;;;;;;5062818;28;20859;-69
2021/04/10 08:16:28;;;;;;;6.53;2.97;;;10.20;99.70;;;;;;5064558;28;20445;-68
2021/04/10 08:18:56;;;;;;;4.43;2.87;;;10.20;99.70;;;;;;5064295;28;20509;-68
2021/04/10 08:21:44;;;;;;;5.73;3.07;;;10.30;99.70;;;;;;5060478;28;20462;-69
2021/04/10 08:24:31;;;;;;;4.40;2.63;;;10.20;99.70;;;;;;5064406;28;20849;-68
2021/04/10 08:26:59;;;;;;;3.97;2.50;;;10.30;99.70;;;;;;5065310;28;20503;-67
2021/04/10 08:29:27;;;;;;;4.20;3.00;;;10.30;99.70;;;;;;5074880;28;20438;-68
2021/04/10 08:31:54;;;;;;;4.40;2.60;;;10.40;99.70;;;;;;5073155;28;21099;-67
2021/04/10 08:34:21;;;;;;;6.80;2.90;;;10.40;99.70;;;;;;5073458;28;20534;-69
2021/04/10 08:36:51;;;;;;;5.63;2.97;;;10.40;99.70;;;;;;5071384;28;20442;-67
2021/04/10 08:39:20;;;;;;;5.57;2.90;;;10.50;99.70;;;;;;5068167;28;20438;-67
2021/04/10 08:41:47;;;;;;;3.97;2.70;;;10.40;99.70;;;;;;5072643;28;20469;-69
2021/04/10 08:44:17;;;;;;;4.23;2.50;;;10.40;99.70;;;;;;5069953;28;20908;-67
2021/04/10 08:46:46;;;;;;;4.40;2.77;;;10.50;99.70;;;;;;5075186;28;20461;-68
2021/04/10 08:49:14;;;;;;;7.00;3.10;;;10.50;99.70;;;;;;5072060;28;20521;-68
2021/04/10 08:51:41;;;;;;;6.57;3.60;;;10.60;99.70;;;;;;5073333;28;20485;-68
2021/04/10 08:54:11;;;;;;;4.83;2.80;;;10.70;99.70;;;;;;5071974;28;20446;-67
2021/04/10 08:56:39;;;;;;;3.47;2.70;;;10.70;99.70;;;;;;5074594;28;20951;-68
2021/04/10 08:59:13;;;;;;;4.20;2.83;;;10.70;99.70;;;;;;5076189;28;20499;-69
2021/04/10 09:01:42;;;;;;;6.87;3.00;;;10.80;99.70;;;;;;5072171;28;20467;-68
2021/04/10 09:04:10;;;;;;;5.30;2.80;;;10.70;99.70;;;;;;5072839;28;20447;-68
2021/04/10 09:06:51;;;;;;;4.10;3.00;;;10.70;99.70;;;;;;5067618;28;20955;-68
2021/04/10 09:09:27;;;;;;;20.70;3.50;;;10.80;99.70;;;;;;5060278;28;20990;-68
2021/04/10 09:12:21;;;;;;;4.90;2.70;;;10.90;99.70;;;;;;5063049;28;20470;-69
2021/04/10 09:14:49;;;;;;;4.67;3.10;;;10.90;99.70;;;;;;5063949;28;20457;-69
2021/04/10 09:17:16;;;;;;;10.10;4.07;;;11.00;99.70;;;;;;5064735;28;20443;-64
2021/04/10 09:19:43;;;;;;;10.27;4.43;;;11.00;99.70;;;;;;5057043;28;20865;-66
2021/04/10 09:22:17;;;;;;;6.70;3.20;;;11.10;99.70;;;;;;5068449;28;21124;-64
2021/04/10 09:24:45;;;;;;;5.47;3.23;;;11.20;99.70;;;;;;5069033;28;20493;-63
2021/04/10 09:27:22;;;;;;;4.37;2.80;;;11.20;99.70;;;;;;5063531;28;21033;-64
2021/04/10 09:29:54;;;;;;;5.20;2.80;;;11.20;99.70;;;;;;5070070;28;20542;-63
2021/04/10 09:32:38;;;;;;;4.40;2.83;;;11.30;99.70;;;;;;5066922;28;21021;-64
2021/04/10 09:35:09;;;;;;;6.13;2.93;;;11.30;99.70;;;;;;5066641;28;20520;-65
2021/04/10 09:37:49;;;;;;;7.30;2.63;;;11.20;99.70;;;;;;5066177;28;20470;-68
2021/04/10 09:40:18;;;;;;;6.03;3.07;;;11.20;99.70;;;;;;5064541;28;20446;-67
2021/04/10 09:42:46;;;;;;;5.37;2.70;;;11.30;99.70;;;;;;5066263;28;20498;-68
2021/04/10 09:45:15;;;;;;;3.90;2.80;;;11.20;99.70;;;;;;5061376;28;20483;-68
2021/04/10 09:48:13;;;;;;;4.87;2.60;;;11.10;99.70;;;;;;5063858;28;20966;-68
2021/04/10 09:50:42;;;;;;;3.87;2.90;;;11.20;99.70;;;;;;5060328;28;20451;-68
2021/04/10 09:53:10;;;;;;;4.37;2.50;;;11.20;99.70;;;;;;5066683;28;20855;-67
2021/04/10 09:55:37;;;;;;;3.93;2.60;;;11.30;99.70;;;;;;5074306;28;20446;-69
2021/04/10 09:58:05;;;;;;;6.03;2.30;;;11.20;99.70;;;;;;5068726;28;20458;-68
2021/04/10 10:00:33;;;;;;;6.47;2.80;;;11.20;99.70;;;;;;5069782;28;20482;-68
2021/04/10 10:03:02;;;;;;;4.90;2.37;;;11.30;99.70;;;;;;5069440;28;20477;-64
2021/04/10 10:05:31;;;;;;;4.90;2.37;;;11.30;99.70;;;;;;5071950;28;20463;-65
2021/04/10 10:08:02;;;;;;;5.90;2.40;;;11.30;99.70;;;;;;5069645;28;20453;-65
2021/04/10 10:10:32;;;;;;;6.33;2.60;;;11.30;99.70;;;;;;5073852;28;20920;-64
2021/04/10 10:13:03;;;;;;;5.27;2.33;;;11.20;99.70;;;;;;5069037;28;20466;-70
2021/04/10 10:15:30;;;;;;;4.67;2.40;;;11.20;99.70;;;;;;5065440;28;20495;-67
2021/04/10 10:17:57;;;;;;;7.40;3.13;;;11.20;99.70;;;;;;5066306;28;20737;-65
2021/04/10 10:20:24;;;;;;;3.73;2.63;;;11.30;99.70;;;;;;5070646;28;20447;-68
2021/04/10 10:22:51;;;;;;;3.97;2.50;;;11.30;99.70;;;;;;5070801;28;20967;-66
2021/04/10 10:25:19;;;;;;;5.00;2.50;;;11.40;99.70;;;;;;5070777;28;20463;-65
2021/04/10 10:27:48;;;;;;;3.63;2.30;;;11.30;99.70;;;;;;5069132;28;20450;-67
2021/04/10 10:30:16;;;;;;;10.40;2.67;;;11.30;99.70;;;;;;5069753;28;20464;-68
2021/04/10 10:32:45;;;;;;;9.17;2.80;;;11.40;99.70;;;;;;5054694;28;20471;-67
2021/04/10 10:35:13;;;;;;;8.73;2.80;;;11.40;99.70;;;;;;5065822;28;20793;-70
2021/04/10 10:37:39;;;;;;;7.60;2.93;;;11.40;99.70;;;;;;5066839;28;20555;-70
2021/04/10 10:40:07;;;;;;;5.13;2.50;;;11.40;99.70;;;;;;5068618;28;20446;-69
2021/04/10 10:42:34;;;;;;;5.90;2.47;;;11.40;99.70;;;;;;5067247;28;20984;-68
2021/04/10 10:45:00;;;;;;;8.10;2.50;;;11.50;99.70;;;;;;5068726;28;20478;-67
2021/04/10 10:47:27;;;;;;;6.90;2.47;;;11.50;99.60;;;;;;5072084;28;20530;-64
2021/04/10 10:49:53;;;;;;;10.33;2.90;;;11.50;99.70;;;;;;5065474;28;21046;-71
2021/04/10 10:52:19;;;;;;;5.23;2.20;;;11.50;99.50;;;;;;5065692;28;20564;-70
2021/04/10 10:54:48;;;;;;;3.20;2.20;;;11.50;99.70;;;;;;5073171;28;20447;-69
2021/04/10 10:57:16;;;;;;;6.40;2.20;;;11.50;99.30;;;;;;5068354;28;20898;-72
2021/04/10 10:59:43;;;;;;;4.40;2.30;;;11.60;99.60;;;;;;5064618;28;20453;-73
2021/04/10 11:02:10;;;;;;;8.47;2.63;;;11.70;99.70;;;;;;5065796;28;20473;-73
2021/04/10 11:04:38;;;;;;;5.00;2.30;;;11.80;98.40;;;;;;5066172;28;20450;-72
2021/04/10 11:07:06;;;;;;;6.07;2.63;;;11.80;98.30;;;;;;5065907;28;20450;-73
2021/04/10 11:09:34;;;;;;;9.37;2.80;;;11.90;98.30;;;;;;5068615;28;20849;-73
2021/04/10 11:12:04;;;;;;;7.60;2.57;;;12.00;98.20;;;;;;5065634;28;20459;-73
2021/04/10 11:14:32;;;;;;;6.67;3.03;;;12.20;98.40;;;;;;5067076;28;20453;-72
2021/04/10 11:17:02;;;;;;;4.53;3.00;;;12.30;96.60;;;;;;5064757;28;20443;-71
2021/04/10 11:19:31;;;;;;;4.80;2.97;;;12.40;97.30;;;;;;5067792;28;20475;-72
2021/04/10 11:21:59;;;;;;;9.80;2.70;;;12.70;97.40;;;;;;5064347;28;20893;-70
2021/04/10 11:24:35;;;;;;;6.90;2.87;;;12.80;95.50;;;;;;5065346;28;20446;-70
2021/04/10 11:27:11;;;;;;;5.53;3.40;;;12.70;97.00;;;;;;5063996;28;20440;-70
2021/04/10 11:29:38;;;;;;;9.03;3.50;;;12.80;95.40;;;;;;5071791;28;20451;-69
2021/04/10 11:32:07;;;;;;;9.80;3.80;;;12.70;97.10;;;;;;5063818;28;20474;-70
2021/04/10 11:34:34;;;;;;;6.80;3.17;;;12.90;94.60;;;;;;5063737;28;20485;-70
2021/04/10 11:37:03;;;;;;;6.90;3.20;;;12.90;95.10;;;;;;5066594;28;21163;-68
2021/04/10 11:39:29;;;;;;;5.10;3.50;;;12.90;96.20;;;;;;5066641;28;20454;-70
2021/04/10 11:41:55;;;;;;;5.90;3.10;;;12.90;94.80;;;;;;5063820;28;20497;-70
2021/04/10 11:44:24;;;;;;;7.60;3.33;;;13.10;95.60;;;;;;5072206;28;20531;-70
2021/04/10 11:47:00;;;;;;;7.37;3.27;;;13.20;94.30;;;;;;5075065;28;20927;-71
2021/04/10 11:49:29;;;;;;;10.30;3.60;;;13.20;95.10;;;;;;5056858;28;20474;-70
2021/04/10 11:52:06;;;;;;;7.47;3.20;;;13.10;95.50;;;;;;5058639;28;20462;-70
2021/04/10 11:54:34;;;;;;;5.50;3.30;;;13.30;95.30;;;;;;5060319;28;20811;-69
2021/04/10 11:57:00;;;;;;;6.10;2.83;;;13.30;94.30;;;;;;5068249;28;20472;-71
2021/04/10 11:59:34;;;;;;;9.27;3.10;;;13.30;95.90;;;;;;5064916;28;20451;-70
2021/04/10 12:02:03;;;;;;;7.63;2.97;;;13.30;93.80;;;;;;5065687;28;20463;-70
2021/04/10 12:04:34;;;;;;;19.67;4.03;;;13.50;94.10;;;;;;5065218;28;20967;-70
2021/04/10 12:07:04;;;;;;;28.27;5.10;;;13.50;93.90;;;;;;5063546;28;20455;-70
2021/04/10 12:09:34;;;;;;;12.33;5.60;;;13.50;94.30;;;;;;5066616;28;20500;-70
2021/04/10 12:12:01;;;;;;;24.80;4.63;;;13.80;92.00;;;;;;5066937;28;20470;-70
2021/04/10 12:14:27;;;;;;;3.80;2.50;;;13.90;92.30;;;;;;5066387;28;20439;-71
2021/04/10 12:16:53;;;;;;;3.90;2.80;;;14.00;88.80;;;;;;5065998;28;20451;-70
2021/04/10 12:19:21;;;;;;;4.77;3.30;;;14.10;88.40;;;;;;5065164;28;20492;-70
2021/04/10 12:21:49;;;;;;;14.07;4.10;;;14.10;90.90;;;;;;5065324;28;20471;-70
2021/04/10 12:24:15;;;;;;;6.63;4.27;;;14.10;92.00;;;;;;5065698;28;20446;-70
2021/04/10 12:26:41;;;;;;;6.87;3.73;;;14.30;91.50;;;;;;5064195;28;20482;-69
2021/04/10 12:29:07;;;;;;;4.77;3.20;;;14.30;90.40;;;;;;5066992;28;20482;-70
2021/04/10 12:31:34;;;;;;;2.73;2.20;;;14.40;86.40;;;;;;5065476;28;20496;-70
2021/04/10 12:34:00;;;;;;;3.67;2.40;;;14.50;83.10;;;;;;5067199;28;20442;-70
2021/04/10 12:36:28;;;;;;;24.73;3.63;;;14.40;84.90;;;;;;5066326;28;20447;-71
2021/04/10 12:38:55;;;;;;;6.77;4.07;;;14.40;86.80;;;;;;5065786;28;20534;-71
2021/04/10 12:41:21;;;;;;;5.03;2.80;;;14.40;90.10;;;;;;5065978;28;20459;-70
2021/04/10 12:43:47;;;;;;;6.53;3.77;;;14.50;89.60;;;;;;5064878;28;20451;-71
2021/04/10 12:46:14;;;;;;;12.30;4.07;;;14.60;89.30;;;;;;5064235;28;20479;-71
2021/04/10 12:48:40;;;;;;;5.60;3.30;;;14.70;90.30;;;;;;5066955;28;20443;-71
2021/04/10 12:51:07;;;;;;;6.90;3.50;;;14.70;89.30;;;;;;5063539;28;20455;-71
2021/04/10 12:53:33;;;;;;;9.10;3.47;;;14.80;86.90;;;;;;5064242;28;21054;-71
2021/04/10 12:56:00;;;;;;;7.93;3.23;;;14.70;88.50;;;;;;5064937;28;20443;-71